sensor_id;sensor_type;location;lat;lon;timestamp;temperature;humidity
20070;DHT22;10195;50.868;4.382;2023-01-15T00:01:23;9.40;99.90
20070;DHT22;10195;50.868;4.382;2023-01-15T00:03:49;9.50;99.90
20070;DHT22;10195;50.868;4.382;2023-01-15T00:06:16;9.40;99.90
20070;DHT22;10195;50.868;4.382;2023-01-15T00:08:43;9.30;99.90
20070;DHT22;10195;50.868;4.382;2023-01-15T00:11:09;9.30;99.90
20070;DHT22;10195;50.868;4.382;2023-01-15T00:13:35;9.20;99.90
20070;DHT22;10195;50.868;4.382;2023-01-15T00:18:29;9.30;99.90
20070;DHT22;10195;50.868;4.382;2023-01-15T00:20:59;9.30;99.90
20070;DHT22;10195;50.868;4.382;2023-01-15T00:23:25;9.30;99.90
20070;DHT22;10195;50.868;4.382;2023-01-15T00:26:13;9.50;99.90
20070;DHT22;10195;50.868;4.382;2023-01-15T00:28:58;9.40;99.90
20070;DHT22;10195;50.868;4.382;2023-01-15T00:31:23;9.50;99.90
20070;DHT22;10195;50.868;4.382;2023-01-15T00:33:49;9.50;99.90
20070;DHT22;10195;50.868;4.382;2023-01-15T00:36:15;9.50;99.90
20070;DHT22;10195;50.868;4.382;2023-01-15T00:38:40;9.40;99.90
20070;DHT22;10195;50.868;4.382;2023-01-15T00:41:06;9.40;99.90
20070;DHT22;10195;50.868;4.382;2023-01-15T00:43:32;9.40;99.90
20070;DHT22;10195;50.868;4.382;2023-01-15T00:45:57;9.30;99.90
20070;DHT22;10195;50.868;4.382;2023-01-15T00:48:23;9.30;99.90
20070;DHT22;10195;50.868;4.382;2023-01-15T00:50:49;9.30;99.90
20070;DHT22;10195;50.868;4.382;2023-01-15T00:53:14;9.30;99.90
20070;DHT22;10195;50.868;4.382;2023-01-15T00:55:40;9.30;99.90
20070;DHT22;10195;50.868;4.382;2023-01-15T00:58:06;9.40;99.90
20070;DHT22;10195;50.868;4.382;2023-01-15T01:00:32;9.40;99.90
20070;DHT22;10195;50.868;4.382;2023-01-15T01:02:57;9.30;99.90
20070;DHT22;10195;50.868;4.382;2023-01-15T01:05:23;9.40;99.90
20070;DHT22;10195;50.868;4.382;2023-01-15T01:07:48;9.40;99.90
20070;DHT22;10195;50.868;4.382;2023-01-15T01:10:15;9.30;99.90
20070;DHT22;10195;50.868;4.382;2023-01-15T01:12:41;9.30;99.90
20070;DHT22;10195;50.868;4.382;2023-01-15T01:15:07;9.30;99.90
20070;DHT22;10195;50.868;4.382;2023-01-15T01:17:38;9.20;99.90
20070;DHT22;10195;50.868;4.382;2023-01-15T01:20:04;9.10;99.90
20070;DHT22;10195;50.868;4.382;2023-01-15T01:22:31;9.20;99.90
20070;DHT22;10195;50.868;4.382;2023-01-15T01:24:58;9.10;99.90
20070;DHT22;10195;50.868;4.382;2023-01-15T01:27:23;9.10;99.90
20070;DHT22;10195;50.868;4.382;2023-01-15T01:29:49;9.10;99.90
20070;DHT22;10195;50.868;4.382;2023-01-15T01:32:15;9.20;99.90
20070;DHT22;10195;50.868;4.382;2023-01-15T01:34:41;9.20;99.90
20070;DHT22;10195;50.868;4.382;2023-01-15T01:37:06;9.20;99.90
20070;DHT22;10195;50.868;4.382;2023-01-15T01:39:32;9.20;99.90
20070;DHT22;10195;50.868;4.382;2023-01-15T01:41:58;9.10;99.90
20070;DHT22;10195;50.868;4.382;2023-01-15T01:47:41;9.10;99.90
20070;DHT22;10195;50.868;4.382;2023-01-15T01:49:55;9.10;99.90
20070;DHT22;10195;50.868;4.382;2023-01-15T01:52:42;9.30;99.90
20070;DHT22;10195;50.868;4.382;2023-01-15T01:55:09;9.10;99.90
20070;DHT22;10195;50.868;4.382;2023-01-15T01:57:37;9.20;99.90
20070;DHT22;10195;50.868;4.382;2023-01-15T02:00:04;9.10;99.90
20070;DHT22;10195;50.868;4.382;2023-01-15T02:02:31;9.00;99.90
20070;DHT22;10195;50.868;4.382;2023-01-15T02:04:57;9.00;99.90
20070;DHT22;10195;50.868;4.382;2023-01-15T02:07:24;9.00;99.90
20070;DHT22;10195;50.868;4.382;2023-01-15T02:09:50;9.00;99.90
20070;DHT22;10195;50.868;4.382;2023-01-15T02:12:34;9.00;99.90
20070;DHT22;10195;50.868;4.382;2023-01-15T02:15:28;8.90;99.90
20070;DHT22;10195;50.868;4.382;2023-01-15T02:18:04;8.80;99.90
20070;DHT22;10195;50.868;4.382;2023-01-15T02:20:53;8.70;99.90
20070;DHT22;10195;50.868;4.382;2023-01-15T02:28:46;8.70;99.90
20070;DHT22;10195;50.868;4.382;2023-01-15T02:31:14;8.60;99.90
20070;DHT22;10195;50.868;4.382;2023-01-15T02:34:03;8.70;99.90
20070;DHT22;10195;50.868;4.382;2023-01-15T02:36:32;8.70;99.90
20070;DHT22;10195;50.868;4.382;2023-01-15T02:39:04;8.70;99.90
20070;DHT22;10195;50.868;4.382;2023-01-15T02:41:35;8.60;99.90
20070;DHT22;10195;50.868;4.382;2023-01-15T02:44:04;8.60;99.90
20070;DHT22;10195;50.868;4.382;2023-01-15T02:46:34;8.70;99.90
20070;DHT22;10195;50.868;4.382;2023-01-15T02:49:01;8.60;99.90
20070;DHT22;10195;50.868;4.382;2023-01-15T02:51:36;8.60;99.90
20070;DHT22;10195;50.868;4.382;2023-01-15T02:54:05;8.50;99.90
20070;DHT22;10195;50.868;4.382;2023-01-15T02:56:33;8.40;99.90
20070;DHT22;10195;50.868;4.382;2023-01-15T02:59:06;8.40;99.90
20070;DHT22;10195;50.868;4.382;2023-01-15T03:01:38;8.40;99.90
20070;DHT22;10195;50.868;4.382;2023-01-15T03:04:32;8.40;99.90
20070;DHT22;10195;50.868;4.382;2023-01-15T03:07:07;8.40;99.90
20070;DHT22;10195;50.868;4.382;2023-01-15T03:09:34;8.40;99.90
20070;DHT22;10195;50.868;4.382;2023-01-15T03:15:06;8.30;99.90
20070;DHT22;10195;50.868;4.382;2023-01-15T03:17:44;8.30;99.90
20070;DHT22;10195;50.868;4.382;2023-01-15T03:20:16;8.30;99.90
20070;DHT22;10195;50.868;4.382;2023-01-15T03:22:45;8.30;99.90
20070;DHT22;10195;50.868;4.382;2023-01-15T03:25:22;8.30;99.90
20070;DHT22;10195;50.868;4.382;2023-01-15T03:27:52;8.30;99.90
20070;DHT22;10195;50.868;4.382;2023-01-15T03:30:21;8.30;99.90
20070;DHT22;10195;50.868;4.382;2023-01-15T03:32:47;8.30;99.90
20070;DHT22;10195;50.868;4.382;2023-01-15T03:35:43;8.40;99.90
20070;DHT22;10195;50.868;4.382;2023-01-15T03:38:13;8.40;99.90
20070;DHT22;10195;50.868;4.382;2023-01-15T03:49:09;8.40;99.90
20070;DHT22;10195;50.868;4.382;2023-01-15T03:51:51;8.30;99.90
20070;DHT22;10195;50.868;4.382;2023-01-15T03:54:46;8.30;99.90
20070;DHT22;10195;50.868;4.382;2023-01-15T03:59:52;8.20;99.90
20070;DHT22;10195;50.868;4.382;2023-01-15T04:02:20;8.30;99.90
20070;DHT22;10195;50.868;4.382;2023-01-15T04:04:47;8.20;99.90
20070;DHT22;10195;50.868;4.382;2023-01-15T04:07:14;8.10;99.90
20070;DHT22;10195;50.868;4.382;2023-01-15T04:09:40;8.10;99.90
20070;DHT22;10195;50.868;4.382;2023-01-15T04:12:06;8.00;99.90
20070;DHT22;10195;50.868;4.382;2023-01-15T04:14:32;8.00;99.90
20070;DHT22;10195;50.868;4.382;2023-01-15T04:16:58;7.90;99.90
20070;DHT22;10195;50.868;4.382;2023-01-15T04:19:24;7.90;99.90
20070;DHT22;10195;50.868;4.382;2023-01-15T04:21:50;7.90;99.90
20070;DHT22;10195;50.868;4.382;2023-01-15T04:24:15;7.90;99.90
20070;DHT22;10195;50.868;4.382;2023-01-15T04:26:41;7.90;99.90
20070;DHT22;10195;50.868;4.382;2023-01-15T04:29:07;7.90;99.90
20070;DHT22;10195;50.868;4.382;2023-01-15T04:31:32;7.90;99.90
20070;DHT22;10195;50.868;4.382;2023-01-15T04:34:01;7.80;99.90
20070;DHT22;10195;50.868;4.382;2023-01-15T04:36:26;7.80;99.90
20070;DHT22;10195;50.868;4.382;2023-01-15T04:38:52;7.80;99.90
20070;DHT22;10195;50.868;4.382;2023-01-15T04:41:19;7.90;99.90
20070;DHT22;10195;50.868;4.382;2023-01-15T04:44:03;7.90;99.90
20070;DHT22;10195;50.868;4.382;2023-01-15T04:46:33;7.80;99.90
20070;DHT22;10195;50.868;4.382;2023-01-15T04:48:59;7.70;99.90
20070;DHT22;10195;50.868;4.382;2023-01-15T04:51:25;7.70;99.90
20070;DHT22;10195;50.868;4.382;2023-01-15T04:53:50;7.70;99.90
20070;DHT22;10195;50.868;4.382;2023-01-15T04:56:16;7.80;99.90
20070;DHT22;10195;50.868;4.382;2023-01-15T04:58:42;7.80;99.90
20070;DHT22;10195;50.868;4.382;2023-01-15T05:01:12;7.70;99.90
20070;DHT22;10195;50.868;4.382;2023-01-15T05:03:38;7.70;99.90
20070;DHT22;10195;50.868;4.382;2023-01-15T05:06:04;7.80;99.90
20070;DHT22;10195;50.868;4.382;2023-01-15T05:08:30;7.70;99.90
20070;DHT22;10195;50.868;4.382;2023-01-15T05:11:04;7.70;99.90
20070;DHT22;10195;50.868;4.382;2023-01-15T05:13:30;7.70;99.90
20070;DHT22;10195;50.868;4.382;2023-01-15T05:18:39;7.80;99.90
20070;DHT22;10195;50.868;4.382;2023-01-15T05:21:05;7.80;99.90
20070;DHT22;10195;50.868;4.382;2023-01-15T05:23:31;7.80;99.90
20070;DHT22;10195;50.868;4.382;2023-01-15T05:25:57;7.70;99.90
20070;DHT22;10195;50.868;4.382;2023-01-15T05:28:22;7.70;99.90
20070;DHT22;10195;50.868;4.382;2023-01-15T05:30:48;7.70;99.90
20070;DHT22;10195;50.868;4.382;2023-01-15T05:33:13;7.70;99.90
20070;DHT22;10195;50.868;4.382;2023-01-15T05:35:39;7.60;99.90
20070;DHT22;10195;50.868;4.382;2023-01-15T05:38:05;7.50;99.90
20070;DHT22;10195;50.868;4.382;2023-01-15T05:40:31;7.50;99.90
20070;DHT22;10195;50.868;4.382;2023-01-15T05:42:57;7.40;99.90
20070;DHT22;10195;50.868;4.382;2023-01-15T05:45:22;7.40;99.90
20070;DHT22;10195;50.868;4.382;2023-01-15T05:47:48;7.40;99.90
20070;DHT22;10195;50.868;4.382;2023-01-15T05:50:14;7.40;99.90
20070;DHT22;10195;50.868;4.382;2023-01-15T05:52:39;7.50;99.90
20070;DHT22;10195;50.868;4.382;2023-01-15T05:55:05;7.60;99.90
20070;DHT22;10195;50.868;4.382;2023-01-15T05:57:31;7.60;99.90
20070;DHT22;10195;50.868;4.382;2023-01-15T05:59:57;7.50;99.90
20070;DHT22;10195;50.868;4.382;2023-01-15T06:02:23;7.40;99.90
20070;DHT22;10195;50.868;4.382;2023-01-15T06:04:49;7.20;99.90
20070;DHT22;10195;50.868;4.382;2023-01-15T06:07:14;6.90;99.90
20070;DHT22;10195;50.868;4.382;2023-01-15T06:09:43;6.70;99.90
20070;DHT22;10195;50.868;4.382;2023-01-15T06:12:08;6.70;99.90
20070;DHT22;10195;50.868;4.382;2023-01-15T06:14:34;6.60;99.90
20070;DHT22;10195;50.868;4.382;2023-01-15T06:17:00;6.70;99.90
20070;DHT22;10195;50.868;4.382;2023-01-15T06:19:25;6.70;99.90
20070;DHT22;10195;50.868;4.382;2023-01-15T06:21:51;6.70;99.90
20070;DHT22;10195;50.868;4.382;2023-01-15T06:24:17;6.60;99.90
20070;DHT22;10195;50.868;4.382;2023-01-15T06:26:44;6.60;99.90
20070;DHT22;10195;50.868;4.382;2023-01-15T06:29:10;6.60;99.90
20070;DHT22;10195;50.868;4.382;2023-01-15T06:31:35;6.50;99.90
20070;DHT22;10195;50.868;4.382;2023-01-15T06:34:01;6.60;99.90
20070;DHT22;10195;50.868;4.382;2023-01-15T06:36:27;6.50;99.90
20070;DHT22;10195;50.868;4.382;2023-01-15T06:38:54;6.50;99.90
20070;DHT22;10195;50.868;4.382;2023-01-15T06:41:23;6.60;99.90
20070;DHT22;10195;50.868;4.382;2023-01-15T06:44:15;6.60;99.90
20070;DHT22;10195;50.868;4.382;2023-01-15T06:47:02;6.50;99.90
20070;DHT22;10195;50.868;4.382;2023-01-15T06:50:05;6.50;99.90
20070;DHT22;10195;50.868;4.382;2023-01-15T06:52:30;6.50;99.90
20070;DHT22;10195;50.868;4.382;2023-01-15T06:54:56;6.50;99.90
20070;DHT22;10195;50.868;4.382;2023-01-15T06:57:22;6.50;99.90
20070;DHT22;10195;50.868;4.382;2023-01-15T06:59:48;6.50;99.90
20070;DHT22;10195;50.868;4.382;2023-01-15T07:02:14;6.50;99.90
20070;DHT22;10195;50.868;4.382;2023-01-15T07:04:42;6.50;99.90
20070;DHT22;10195;50.868;4.382;2023-01-15T07:07:07;6.50;99.90
20070;DHT22;10195;50.868;4.382;2023-01-15T07:09:33;6.50;99.90
20070;DHT22;10195;50.868;4.382;2023-01-15T07:11:59;6.50;99.90
20070;DHT22;10195;50.868;4.382;2023-01-15T07:14:25;6.50;99.90
20070;DHT22;10195;50.868;4.382;2023-01-15T07:16:55;6.40;99.90
20070;DHT22;10195;50.868;4.382;2023-01-15T07:19:21;6.40;99.90
20070;DHT22;10195;50.868;4.382;2023-01-15T07:21:46;6.40;99.90
20070;DHT22;10195;50.868;4.382;2023-01-15T07:24:13;6.40;99.90
20070;DHT22;10195;50.868;4.382;2023-01-15T07:26:40;6.40;99.90
20070;DHT22;10195;50.868;4.382;2023-01-15T07:29:06;6.50;99.90
20070;DHT22;10195;50.868;4.382;2023-01-15T07:31:32;6.50;99.90
20070;DHT22;10195;50.868;4.382;2023-01-15T07:33:58;6.50;99.90
20070;DHT22;10195;50.868;4.382;2023-01-15T07:36:24;6.40;99.90
20070;DHT22;10195;50.868;4.382;2023-01-15T07:38:49;6.40;99.90
20070;DHT22;10195;50.868;4.382;2023-01-15T07:41:15;6.40;99.90
20070;DHT22;10195;50.868;4.382;2023-01-15T07:43:59;6.40;99.90
20070;DHT22;10195;50.868;4.382;2023-01-15T07:46:43;6.40;99.90
20070;DHT22;10195;50.868;4.382;2023-01-15T07:49:27;6.40;99.90
20070;DHT22;10195;50.868;4.382;2023-01-15T07:52:19;6.40;99.90
20070;DHT22;10195;50.868;4.382;2023-01-15T07:54:46;6.50;99.90
20070;DHT22;10195;50.868;4.382;2023-01-15T07:57:14;6.50;99.90
20070;DHT22;10195;50.868;4.382;2023-01-15T07:59:40;6.40;99.90
20070;DHT22;10195;50.868;4.382;2023-01-15T08:02:06;6.30;99.90
20070;DHT22;10195;50.868;4.382;2023-01-15T08:04:32;6.30;99.90
20070;DHT22;10195;50.868;4.382;2023-01-15T08:06:59;6.30;99.90
20070;DHT22;10195;50.868;4.382;2023-01-15T08:09:25;6.30;99.90
20070;DHT22;10195;50.868;4.382;2023-01-15T08:11:51;6.30;99.90
20070;DHT22;10195;50.868;4.382;2023-01-15T08:14:35;6.30;99.90
20070;DHT22;10195;50.868;4.382;2023-01-15T08:17:19;6.40;99.90
20070;DHT22;10195;50.868;4.382;2023-01-15T08:19:45;6.40;99.90
20070;DHT22;10195;50.868;4.382;2023-01-15T08:22:10;6.40;99.90
20070;DHT22;10195;50.868;4.382;2023-01-15T08:24:36;6.40;99.90
20070;DHT22;10195;50.868;4.382;2023-01-15T08:27:02;6.30;99.90
20070;DHT22;10195;50.868;4.382;2023-01-15T08:29:28;6.40;99.90
20070;DHT22;10195;50.868;4.382;2023-01-15T08:31:54;6.40;99.90
20070;DHT22;10195;50.868;4.382;2023-01-15T08:34:20;6.40;99.90
20070;DHT22;10195;50.868;4.382;2023-01-15T08:36:45;6.40;99.90
20070;DHT22;10195;50.868;4.382;2023-01-15T08:39:11;6.50;99.90
20070;DHT22;10195;50.868;4.382;2023-01-15T08:41:37;6.50;99.90
20070;DHT22;10195;50.868;4.382;2023-01-15T08:44:03;6.50;99.90
20070;DHT22;10195;50.868;4.382;2023-01-15T08:46:28;6.50;99.90
20070;DHT22;10195;50.868;4.382;2023-01-15T08:48:54;6.70;99.90
20070;DHT22;10195;50.868;4.382;2023-01-15T08:51:19;6.70;99.90
20070;DHT22;10195;50.868;4.382;2023-01-15T08:53:45;6.70;99.90
20070;DHT22;10195;50.868;4.382;2023-01-15T08:56:16;6.90;99.90
20070;DHT22;10195;50.868;4.382;2023-01-15T08:58:42;6.80;99.90
20070;DHT22;10195;50.868;4.382;2023-01-15T09:01:10;6.80;99.90
20070;DHT22;10195;50.868;4.382;2023-01-15T09:03:40;6.70;99.90
20070;DHT22;10195;50.868;4.382;2023-01-15T09:06:06;6.70;99.90
20070;DHT22;10195;50.868;4.382;2023-01-15T09:08:32;6.80;99.90
20070;DHT22;10195;50.868;4.382;2023-01-15T09:11:02;6.90;99.90
20070;DHT22;10195;50.868;4.382;2023-01-15T09:13:29;7.00;99.90
20070;DHT22;10195;50.868;4.382;2023-01-15T09:15:59;7.10;99.90
20070;DHT22;10195;50.868;4.382;2023-01-15T09:18:25;7.20;99.90
20070;DHT22;10195;50.868;4.382;2023-01-15T09:20:50;7.30;99.90
20070;DHT22;10195;50.868;4.382;2023-01-15T09:23:16;7.40;99.90
20070;DHT22;10195;50.868;4.382;2023-01-15T09:25:53;7.60;99.90
20070;DHT22;10195;50.868;4.382;2023-01-15T09:28:19;7.90;99.90
20070;DHT22;10195;50.868;4.382;2023-01-15T09:30:45;8.30;99.90
20070;DHT22;10195;50.868;4.382;2023-01-15T09:33:10;8.50;99.90
20070;DHT22;10195;50.868;4.382;2023-01-15T09:35:36;8.40;99.90
20070;DHT22;10195;50.868;4.382;2023-01-15T09:38:02;8.10;99.90
20070;DHT22;10195;50.868;4.382;2023-01-15T09:40:47;7.90;99.90
20070;DHT22;10195;50.868;4.382;2023-01-15T09:43:37;7.70;99.90
20070;DHT22;10195;50.868;4.382;2023-01-15T09:46:13;7.60;99.90
20070;DHT22;10195;50.868;4.382;2023-01-15T09:57:11;6.90;99.90
20070;DHT22;10195;50.868;4.382;2023-01-15T09:59:42;6.90;99.90
20070;DHT22;10195;50.868;4.382;2023-01-15T10:05:45;7.00;99.90
20070;DHT22;10195;50.868;4.382;2023-01-15T10:13:54;7.00;99.90
20070;DHT22;10195;50.868;4.382;2023-01-15T10:16:25;7.00;99.90
20070;DHT22;10195;50.868;4.382;2023-01-15T10:18:52;6.90;99.90
20070;DHT22;10195;50.868;4.382;2023-01-15T10:24:30;6.80;99.90
20070;DHT22;10195;50.868;4.382;2023-01-15T10:26:58;6.80;99.90
20070;DHT22;10195;50.868;4.382;2023-01-15T10:30:02;6.80;99.90
20070;DHT22;10195;50.868;4.382;2023-01-15T10:32:46;6.80;99.90
20070;DHT22;10195;50.868;4.382;2023-01-15T10:35:41;6.70;99.90
20070;DHT22;10195;50.868;4.382;2023-01-15T10:38:28;6.70;99.90
20070;DHT22;10195;50.868;4.382;2023-01-15T10:43:45;7.70;99.90
20070;DHT22;10195;50.868;4.382;2023-01-15T10:46:17;8.50;99.90
20070;DHT22;10195;50.868;4.382;2023-01-15T10:48:52;9.00;99.90
20070;DHT22;10195;50.868;4.382;2023-01-15T10:51:25;9.30;99.90
20070;DHT22;10195;50.868;4.382;2023-01-15T10:54:04;9.90;99.90
20070;DHT22;10195;50.868;4.382;2023-01-15T11:01:36;9.40;99.90
20070;DHT22;10195;50.868;4.382;2023-01-15T11:04:03;9.00;99.90
20070;DHT22;10195;50.868;4.382;2023-01-15T11:06:30;9.00;99.90
20070;DHT22;10195;50.868;4.382;2023-01-15T11:08:57;9.00;99.90
20070;DHT22;10195;50.868;4.382;2023-01-15T11:11:43;8.80;99.90
20070;DHT22;10195;50.868;4.382;2023-01-15T11:14:51;8.40;99.90
20070;DHT22;10195;50.868;4.382;2023-01-15T11:17:43;8.20;99.90
20070;DHT22;10195;50.868;4.382;2023-01-15T11:22:54;7.80;99.90
20070;DHT22;10195;50.868;4.382;2023-01-15T11:25:27;7.70;99.90
20070;DHT22;10195;50.868;4.382;2023-01-15T11:27:53;7.80;99.90
20070;DHT22;10195;50.868;4.382;2023-01-15T11:30:33;7.70;99.90
20070;DHT22;10195;50.868;4.382;2023-01-15T11:33:02;7.60;99.90
20070;DHT22;10195;50.868;4.382;2023-01-15T11:35:29;7.60;99.90
20070;DHT22;10195;50.868;4.382;2023-01-15T11:38:21;7.80;99.90
20070;DHT22;10195;50.868;4.382;2023-01-15T11:40:59;7.90;99.90
20070;DHT22;10195;50.868;4.382;2023-01-15T11:43:27;7.90;99.90
20070;DHT22;10195;50.868;4.382;2023-01-15T11:46:25;7.90;99.90
20070;DHT22;10195;50.868;4.382;2023-01-15T11:49:10;7.90;99.90
20070;DHT22;10195;50.868;4.382;2023-01-15T11:51:56;7.90;99.90
20070;DHT22;10195;50.868;4.382;2023-01-15T11:54:24;7.80;99.90
20070;DHT22;10195;50.868;4.382;2023-01-15T11:56:51;8.00;99.90
20070;DHT22;10195;50.868;4.382;2023-01-15T11:59:18;8.00;99.90
20070;DHT22;10195;50.868;4.382;2023-01-15T12:04:58;8.10;99.90
20070;DHT22;10195;50.868;4.382;2023-01-15T12:07:25;8.10;99.90
20070;DHT22;10195;50.868;4.382;2023-01-15T12:10:26;8.00;99.90
20070;DHT22;10195;50.868;4.382;2023-01-15T12:13:20;8.00;99.90
20070;DHT22;10195;50.868;4.382;2023-01-15T12:16:15;8.00;99.90
20070;DHT22;10195;50.868;4.382;2023-01-15T12:19:04;8.00;99.90
20070;DHT22;10195;50.868;4.382;2023-01-15T12:29:52;8.10;99.90
20070;DHT22;10195;50.868;4.382;2023-01-15T12:32:28;8.00;99.90
20070;DHT22;10195;50.868;4.382;2023-01-15T12:35:06;7.90;99.90
20070;DHT22;10195;50.868;4.382;2023-01-15T12:37:42;7.90;99.90
20070;DHT22;10195;50.868;4.382;2023-01-15T12:40:29;7.80;99.90
20070;DHT22;10195;50.868;4.382;2023-01-15T12:42:57;7.90;99.90
20070;DHT22;10195;50.868;4.382;2023-01-15T12:45:48;7.90;99.90
20070;DHT22;10195;50.868;4.382;2023-01-15T12:48:21;7.90;99.90
20070;DHT22;10195;50.868;4.382;2023-01-15T12:50:49;8.00;99.90
20070;DHT22;10195;50.868;4.382;2023-01-15T13:09:43;8.20;99.90
20070;DHT22;10195;50.868;4.382;2023-01-15T13:12:14;8.20;99.90
20070;DHT22;10195;50.868;4.382;2023-01-15T13:14:41;8.30;99.90
20070;DHT22;10195;50.868;4.382;2023-01-15T13:22:18;8.20;99.90
20070;DHT22;10195;50.868;4.382;2023-01-15T13:25:00;8.20;99.90
20070;DHT22;10195;50.868;4.382;2023-01-15T13:32:53;8.20;99.90
20070;DHT22;10195;50.868;4.382;2023-01-15T13:35:32;8.30;99.90
20070;DHT22;10195;50.868;4.382;2023-01-15T13:38:05;8.20;99.90
20070;DHT22;10195;50.868;4.382;2023-01-15T13:40:39;8.20;99.90
20070;DHT22;10195;50.868;4.382;2023-01-15T13:43:07;8.40;99.90
20070;DHT22;10195;50.868;4.382;2023-01-15T13:45:35;8.40;99.90
20070;DHT22;10195;50.868;4.382;2023-01-15T13:48:28;8.30;99.90
20070;DHT22;10195;50.868;4.382;2023-01-15T13:50:56;8.10;99.90
20070;DHT22;10195;50.868;4.382;2023-01-15T13:55:59;8.00;99.90
20070;DHT22;10195;50.868;4.382;2023-01-15T13:58:31;8.00;99.90
20070;DHT22;10195;50.868;4.382;2023-01-15T14:04:05;7.90;99.90
20070;DHT22;10195;50.868;4.382;2023-01-15T14:06:50;7.90;99.90
20070;DHT22;10195;50.868;4.382;2023-01-15T14:25:53;7.50;99.90
20070;DHT22;10195;50.868;4.382;2023-01-15T14:31:41;7.50;99.90
20070;DHT22;10195;50.868;4.382;2023-01-15T14:34:25;7.40;99.90
20070;DHT22;10195;50.868;4.382;2023-01-15T14:36:57;7.30;99.90
20070;DHT22;10195;50.868;4.382;2023-01-15T14:47:50;7.30;99.90
20070;DHT22;10195;50.868;4.382;2023-01-15T14:50:23;7.40;99.90
20070;DHT22;10195;50.868;4.382;2023-01-15T14:52:52;7.40;99.90
20070;DHT22;10195;50.868;4.382;2023-01-15T14:55:19;7.40;99.90
20070;DHT22;10195;50.868;4.382;2023-01-15T14:57:59;7.50;99.90
20070;DHT22;10195;50.868;4.382;2023-01-15T15:00:34;7.50;99.90
20070;DHT22;10195;50.868;4.382;2023-01-15T15:03:01;7.40;99.90
20070;DHT22;10195;50.868;4.382;2023-01-15T15:05:30;7.30;99.90
20070;DHT22;10195;50.868;4.382;2023-01-15T15:07:58;7.20;99.90
20070;DHT22;10195;50.868;4.382;2023-01-15T15:10:33;7.30;99.90
20070;DHT22;10195;50.868;4.382;2023-01-15T15:18:46;7.40;99.90
20070;DHT22;10195;50.868;4.382;2023-01-15T15:21:23;7.40;99.90
20070;DHT22;10195;50.868;4.382;2023-01-15T15:26:34;7.40;99.90
20070;DHT22;10195;50.868;4.382;2023-01-15T15:29:11;7.30;99.90
20070;DHT22;10195;50.868;4.382;2023-01-15T15:31:47;7.30;99.90
20070;DHT22;10195;50.868;4.382;2023-01-15T15:36:58;7.30;99.90
20070;DHT22;10195;50.868;4.382;2023-01-15T15:39:33;7.30;99.90
20070;DHT22;10195;50.868;4.382;2023-01-15T15:42:01;7.30;99.90
20070;DHT22;10195;50.868;4.382;2023-01-15T15:44:52;7.30;99.90
20070;DHT22;10195;50.868;4.382;2023-01-15T15:47:39;7.20;99.90
20070;DHT22;10195;50.868;4.382;2023-01-15T15:50:33;7.10;99.90
20070;DHT22;10195;50.868;4.382;2023-01-15T15:52:59;7.10;99.90
20070;DHT22;10195;50.868;4.382;2023-01-15T15:55:46;7.10;99.90
20070;DHT22;10195;50.868;4.382;2023-01-15T15:58:23;7.10;99.90
20070;DHT22;10195;50.868;4.382;2023-01-15T16:00:50;7.20;99.90
20070;DHT22;10195;50.868;4.382;2023-01-15T16:03:35;7.20;99.90
20070;DHT22;10195;50.868;4.382;2023-01-15T16:06:03;7.20;99.90
20070;DHT22;10195;50.868;4.382;2023-01-15T16:08:30;7.10;99.90
20070;DHT22;10195;50.868;4.382;2023-01-15T16:10:59;7.10;99.90
20070;DHT22;10195;50.868;4.382;2023-01-15T16:13:39;7.10;99.90
20070;DHT22;10195;50.868;4.382;2023-01-15T16:16:06;7.00;99.90
20070;DHT22;10195;50.868;4.382;2023-01-15T16:21:02;6.80;99.90
20070;DHT22;10195;50.868;4.382;2023-01-15T16:23:29;6.80;99.90
20070;DHT22;10195;50.868;4.382;2023-01-15T16:26:19;6.70;99.90
20070;DHT22;10195;50.868;4.382;2023-01-15T16:28:55;6.70;99.90
20070;DHT22;10195;50.868;4.382;2023-01-15T16:31:22;6.70;99.90
20070;DHT22;10195;50.868;4.382;2023-01-15T16:33:56;6.70;99.90
20070;DHT22;10195;50.868;4.382;2023-01-15T16:36:23;6.70;99.90
20070;DHT22;10195;50.868;4.382;2023-01-15T16:38:50;6.70;99.90
20070;DHT22;10195;50.868;4.382;2023-01-15T16:41:39;6.80;99.90
20070;DHT22;10195;50.868;4.382;2023-01-15T16:44:07;6.80;99.90
20070;DHT22;10195;50.868;4.382;2023-01-15T16:46:53;6.80;99.90
20070;DHT22;10195;50.868;4.382;2023-01-15T16:51:49;6.80;99.90
20070;DHT22;10195;50.868;4.382;2023-01-15T16:57:01;6.80;99.90
20070;DHT22;10195;50.868;4.382;2023-01-15T17:01:54;6.80;99.90
20070;DHT22;10195;50.868;4.382;2023-01-15T17:04:33;6.60;99.90
20070;DHT22;10195;50.868;4.382;2023-01-15T17:07:15;6.40;99.90
20070;DHT22;10195;50.868;4.382;2023-01-15T17:09:51;6.40;99.90
20070;DHT22;10195;50.868;4.382;2023-01-15T17:14:52;6.20;99.90
20070;DHT22;10195;50.868;4.382;2023-01-15T17:19:48;6.10;99.90
20070;DHT22;10195;50.868;4.382;2023-01-15T17:22:32;6.10;99.90
20070;DHT22;10195;50.868;4.382;2023-01-15T17:24:59;6.00;99.90
20070;DHT22;10195;50.868;4.382;2023-01-15T17:27:26;6.10;99.90
20070;DHT22;10195;50.868;4.382;2023-01-15T17:29:53;6.10;99.90
20070;DHT22;10195;50.868;4.382;2023-01-15T17:32:39;6.20;99.90
20070;DHT22;10195;50.868;4.382;2023-01-15T17:35:20;6.20;99.90
20070;DHT22;10195;50.868;4.382;2023-01-15T17:37:47;6.30;99.90
20070;DHT22;10195;50.868;4.382;2023-01-15T17:40:12;6.40;99.90
20070;DHT22;10195;50.868;4.382;2023-01-15T17:42:38;6.40;99.90
20070;DHT22;10195;50.868;4.382;2023-01-15T17:45:04;6.50;99.90
20070;DHT22;10195;50.868;4.382;2023-01-15T17:47:30;6.60;99.90
20070;DHT22;10195;50.868;4.382;2023-01-15T17:49:55;6.70;99.90
20070;DHT22;10195;50.868;4.382;2023-01-15T17:52:21;6.70;99.90
20070;DHT22;10195;50.868;4.382;2023-01-15T17:54:47;6.70;99.90
20070;DHT22;10195;50.868;4.382;2023-01-15T17:57:31;6.70;99.90
20070;DHT22;10195;50.868;4.382;2023-01-15T18:00:16;6.70;99.90
20070;DHT22;10195;50.868;4.382;2023-01-15T18:03:01;6.80;99.90
20070;DHT22;10195;50.868;4.382;2023-01-15T18:05:47;6.80;99.90
20070;DHT22;10195;50.868;4.382;2023-01-15T18:08:14;6.80;99.90
20070;DHT22;10195;50.868;4.382;2023-01-15T18:10:43;6.90;99.90
20070;DHT22;10195;50.868;4.382;2023-01-15T18:13:11;6.90;99.90
20070;DHT22;10195;50.868;4.382;2023-01-15T18:15:40;6.90;99.90
20070;DHT22;10195;50.868;4.382;2023-01-15T18:18:05;6.90;99.90
20070;DHT22;10195;50.868;4.382;2023-01-15T18:20:31;7.00;99.90
20070;DHT22;10195;50.868;4.382;2023-01-15T18:22:58;7.00;99.90
20070;DHT22;10195;50.868;4.382;2023-01-15T18:25:23;7.10;99.90
20070;DHT22;10195;50.868;4.382;2023-01-15T18:27:49;7.10;99.90
20070;DHT22;10195;50.868;4.382;2023-01-15T18:30:16;7.10;99.90
20070;DHT22;10195;50.868;4.382;2023-01-15T18:32:42;7.10;99.90
20070;DHT22;10195;50.868;4.382;2023-01-15T18:35:09;7.20;99.90
20070;DHT22;10195;50.868;4.382;2023-01-15T18:37:36;7.20;99.90
20070;DHT22;10195;50.868;4.382;2023-01-15T18:40:02;7.20;99.90
20070;DHT22;10195;50.868;4.382;2023-01-15T18:42:28;7.20;99.90
20070;DHT22;10195;50.868;4.382;2023-01-15T18:45:12;7.20;99.90
20070;DHT22;10195;50.868;4.382;2023-01-15T18:48:00;7.20;99.90